Daet, Philippines
Current Conditions -  °F | °C
As of 2:00 PM on Thursday 23 Oct 2014 (Local Time) from RPLL Reporting Station
Broken Clouds Broken Clouds  
Wind Chill: 84°   Ceiling: 10000
Heat Index: 94°   Visibility: 6mi
Dew Point: 77°   Wind: 5mph
Humidity: 79%   Direction: 290°WNW
Pressure: 29.8"   Gusts: NA
Location:  14.12°N, 122.96°E
Report Text: RPLL 230600Z 29004KT 250V330 9999 FEW023 BKN100 29/25 Q1009 NOSIG RMK A2980
Loading
Personal Weather Stations






























Interactive Weather Map
Tropical Storm Tracking
New forecast layout! Learn more

10-Day Weather Forecast

Advertisements
Track Severe Weather on mobile